sensor_id;sensor_type;location;lat;lon;timestamp;temperature;humidity
32600;DHT22;19277;51.778;7.912;2023-03-14T00:01:15;20.40;67.80
32600;DHT22;19277;51.778;7.912;2023-03-14T00:03:41;20.40;68.20
32600;DHT22;19277;51.778;7.912;2023-03-14T00:06:07;20.40;68.00
32600;DHT22;19277;51.778;7.912;2023-03-14T00:08:33;20.40;67.80
32600;DHT22;19277;51.778;7.912;2023-03-14T00:11:13;20.40;68.10
32600;DHT22;19277;51.778;7.912;2023-03-14T00:13:39;20.40;67.90
32600;DHT22;19277;51.778;7.912;2023-03-14T00:16:08;20.40;67.90
32600;DHT22;19277;51.778;7.912;2023-03-14T00:18:34;20.40;68.10
32600;DHT22;19277;51.778;7.912;2023-03-14T00:21:01;20.40;68.10
32600;DHT22;19277;51.778;7.912;2023-03-14T00:23:28;20.30;68.00
32600;DHT22;19277;51.778;7.912;2023-03-14T00:25:58;20.30;68.00
32600;DHT22;19277;51.778;7.912;2023-03-14T00:28:23;20.30;68.10
32600;DHT22;19277;51.778;7.912;2023-03-14T00:30:49;20.30;68.30
32600;DHT22;19277;51.778;7.912;2023-03-14T00:33:14;20.20;68.30
32600;DHT22;19277;51.778;7.912;2023-03-14T00:35:40;20.20;67.60
32600;DHT22;19277;51.778;7.912;2023-03-14T00:38:05;20.20;68.00
32600;DHT22;19277;51.778;7.912;2023-03-14T00:40:31;20.20;68.40
32600;DHT22;19277;51.778;7.912;2023-03-14T00:42:56;20.20;68.20
32600;DHT22;19277;51.778;7.912;2023-03-14T00:45:22;20.20;68.70
32600;DHT22;19277;51.778;7.912;2023-03-14T00:47:47;20.20;68.70
32600;DHT22;19277;51.778;7.912;2023-03-14T00:50:13;20.30;68.80
32600;DHT22;19277;51.778;7.912;2023-03-14T00:52:39;20.20;68.90
32600;DHT22;19277;51.778;7.912;2023-03-14T00:55:05;20.20;68.90
32600;DHT22;19277;51.778;7.912;2023-03-14T00:57:30;20.20;69.00
32600;DHT22;19277;51.778;7.912;2023-03-14T00:59:56;20.20;68.90
32600;DHT22;19277;51.778;7.912;2023-03-14T01:02:21;20.20;68.90
32600;DHT22;19277;51.778;7.912;2023-03-14T01:04:48;20.30;68.90
32600;DHT22;19277;51.778;7.912;2023-03-14T01:07:14;20.30;68.80
32600;DHT22;19277;51.778;7.912;2023-03-14T01:09:40;20.30;68.50
32600;DHT22;19277;51.778;7.912;2023-03-14T01:12:05;20.30;68.50
32600;DHT22;19277;51.778;7.912;2023-03-14T01:14:31;20.20;68.50
32600;DHT22;19277;51.778;7.912;2023-03-14T01:16:56;20.20;68.70
32600;DHT22;19277;51.778;7.912;2023-03-14T01:19:29;20.30;68.80
32600;DHT22;19277;51.778;7.912;2023-03-14T01:21:55;20.30;68.60
32600;DHT22;19277;51.778;7.912;2023-03-14T01:24:20;20.30;68.60
32600;DHT22;19277;51.778;7.912;2023-03-14T01:26:46;20.30;68.60
32600;DHT22;19277;51.778;7.912;2023-03-14T01:29:12;20.40;68.60
32600;DHT22;19277;51.778;7.912;2023-03-14T01:31:37;20.40;68.40
32600;DHT22;19277;51.778;7.912;2023-03-14T01:34:03;20.40;68.90
32600;DHT22;19277;51.778;7.912;2023-03-14T01:36:29;20.40;68.40
32600;DHT22;19277;51.778;7.912;2023-03-14T01:38:55;20.40;68.10
32600;DHT22;19277;51.778;7.912;2023-03-14T01:41:23;20.40;68.20
32600;DHT22;19277;51.778;7.912;2023-03-14T01:43:49;20.40;68.20
32600;DHT22;19277;51.778;7.912;2023-03-14T01:46:25;20.30;68.20
32600;DHT22;19277;51.778;7.912;2023-03-14T01:48:55;20.40;67.90
32600;DHT22;19277;51.778;7.912;2023-03-14T01:51:30;20.40;68.90
32600;DHT22;19277;51.778;7.912;2023-03-14T01:54:12;20.40;69.00
32600;DHT22;19277;51.778;7.912;2023-03-14T01:56:41;20.40;69.70
32600;DHT22;19277;51.778;7.912;2023-03-14T01:59:09;20.30;69.10
32600;DHT22;19277;51.778;7.912;2023-03-14T02:01:36;20.40;68.90
32600;DHT22;19277;51.778;7.912;2023-03-14T02:04:04;20.40;69.30
32600;DHT22;19277;51.778;7.912;2023-03-14T02:06:40;20.30;68.90
32600;DHT22;19277;51.778;7.912;2023-03-14T02:09:07;20.30;69.20
32600;DHT22;19277;51.778;7.912;2023-03-14T02:11:33;20.30;69.10
32600;DHT22;19277;51.778;7.912;2023-03-14T02:13:59;20.30;69.10
32600;DHT22;19277;51.778;7.912;2023-03-14T02:16:24;20.30;69.30
32600;DHT22;19277;51.778;7.912;2023-03-14T02:18:50;20.30;69.10
32600;DHT22;19277;51.778;7.912;2023-03-14T02:24:31;20.20;69.80
32600;DHT22;19277;51.778;7.912;2023-03-14T02:27:07;20.10;69.80
32600;DHT22;19277;51.778;7.912;2023-03-14T02:29:35;20.10;69.60
32600;DHT22;19277;51.778;7.912;2023-03-14T02:32:02;20.10;69.90
32600;DHT22;19277;51.778;7.912;2023-03-14T02:34:27;20.10;69.70
32600;DHT22;19277;51.778;7.912;2023-03-14T02:36:54;20.10;69.80
32600;DHT22;19277;51.778;7.912;2023-03-14T02:39:40;20.10;69.90
32600;DHT22;19277;51.778;7.912;2023-03-14T02:42:07;20.10;70.10
32600;DHT22;19277;51.778;7.912;2023-03-14T02:44:32;20.10;70.20
32600;DHT22;19277;51.778;7.912;2023-03-14T02:46:58;20.10;70.10
32600;DHT22;19277;51.778;7.912;2023-03-14T02:49:25;20.00;70.10
32600;DHT22;19277;51.778;7.912;2023-03-14T02:51:53;20.00;70.00
32600;DHT22;19277;51.778;7.912;2023-03-14T02:54:19;20.00;70.20
32600;DHT22;19277;51.778;7.912;2023-03-14T02:56:45;20.00;70.20
32600;DHT22;19277;51.778;7.912;2023-03-14T02:59:11;19.90;70.10
32600;DHT22;19277;51.778;7.912;2023-03-14T03:01:36;20.00;70.10
32600;DHT22;19277;51.778;7.912;2023-03-14T03:04:02;19.90;69.80
32600;DHT22;19277;51.778;7.912;2023-03-14T03:06:28;19.90;70.00
32600;DHT22;19277;51.778;7.912;2023-03-14T03:08:54;20.00;70.10
32600;DHT22;19277;51.778;7.912;2023-03-14T03:11:19;19.90;69.70
32600;DHT22;19277;51.778;7.912;2023-03-14T03:13:45;19.90;70.10
32600;DHT22;19277;51.778;7.912;2023-03-14T03:16:10;19.90;69.80
32600;DHT22;19277;51.778;7.912;2023-03-14T03:18:38;19.90;70.30
32600;DHT22;19277;51.778;7.912;2023-03-14T03:21:04;19.90;70.30
32600;DHT22;19277;51.778;7.912;2023-03-14T03:23:31;19.90;70.20
32600;DHT22;19277;51.778;7.912;2023-03-14T03:25:57;19.90;70.20
32600;DHT22;19277;51.778;7.912;2023-03-14T03:28:23;19.90;70.00
32600;DHT22;19277;51.778;7.912;2023-03-14T03:30:48;19.90;70.10
32600;DHT22;19277;51.778;7.912;2023-03-14T03:33:14;19.90;70.30
32600;DHT22;19277;51.778;7.912;2023-03-14T03:35:48;19.90;70.10
32600;DHT22;19277;51.778;7.912;2023-03-14T03:38:14;19.90;70.00
32600;DHT22;19277;51.778;7.912;2023-03-14T03:40:40;19.90;69.80
32600;DHT22;19277;51.778;7.912;2023-03-14T03:43:06;19.90;70.10
32600;DHT22;19277;51.778;7.912;2023-03-14T03:45:32;19.90;70.20
32600;DHT22;19277;51.778;7.912;2023-03-14T03:47:57;19.90;70.30
32600;DHT22;19277;51.778;7.912;2023-03-14T03:50:23;19.90;70.10
32600;DHT22;19277;51.778;7.912;2023-03-14T03:52:48;19.90;70.40
32600;DHT22;19277;51.778;7.912;2023-03-14T03:55:14;19.90;70.30
32600;DHT22;19277;51.778;7.912;2023-03-14T03:57:40;19.90;70.20
32600;DHT22;19277;51.778;7.912;2023-03-14T04:00:06;19.80;70.00
32600;DHT22;19277;51.778;7.912;2023-03-14T04:02:34;19.80;70.50
32600;DHT22;19277;51.778;7.912;2023-03-14T04:04:59;19.80;70.10
32600;DHT22;19277;51.778;7.912;2023-03-14T04:07:25;19.80;70.40
32600;DHT22;19277;51.778;7.912;2023-03-14T04:09:51;19.80;70.10
32600;DHT22;19277;51.778;7.912;2023-03-14T04:12:16;19.80;70.20
32600;DHT22;19277;51.778;7.912;2023-03-14T04:14:42;19.70;70.40
32600;DHT22;19277;51.778;7.912;2023-03-14T04:17:07;19.80;70.20
32600;DHT22;19277;51.778;7.912;2023-03-14T04:19:33;19.80;70.30
32600;DHT22;19277;51.778;7.912;2023-03-14T04:21:59;19.70;70.20
32600;DHT22;19277;51.778;7.912;2023-03-14T04:24:24;19.70;70.20
32600;DHT22;19277;51.778;7.912;2023-03-14T04:26:50;19.80;70.30
32600;DHT22;19277;51.778;7.912;2023-03-14T04:29:15;19.70;70.20
32600;DHT22;19277;51.778;7.912;2023-03-14T04:31:41;19.70;70.50
32600;DHT22;19277;51.778;7.912;2023-03-14T04:34:07;19.70;70.20
32600;DHT22;19277;51.778;7.912;2023-03-14T04:36:32;19.70;70.40
32600;DHT22;19277;51.778;7.912;2023-03-14T04:38:58;19.70;70.50
32600;DHT22;19277;51.778;7.912;2023-03-14T04:41:23;19.70;70.80
32600;DHT22;19277;51.778;7.912;2023-03-14T04:43:49;19.70;70.70
32600;DHT22;19277;51.778;7.912;2023-03-14T04:46:15;19.70;70.90
32600;DHT22;19277;51.778;7.912;2023-03-14T04:48:40;19.60;70.50
32600;DHT22;19277;51.778;7.912;2023-03-14T04:51:06;19.70;71.20
32600;DHT22;19277;51.778;7.912;2023-03-14T04:53:31;19.60;71.10
32600;DHT22;19277;51.778;7.912;2023-03-14T04:55:57;19.60;71.10
32600;DHT22;19277;51.778;7.912;2023-03-14T04:58:23;19.70;71.10
32600;DHT22;19277;51.778;7.912;2023-03-14T05:00:49;19.70;70.80
32600;DHT22;19277;51.778;7.912;2023-03-14T05:03:16;19.70;71.10
32600;DHT22;19277;51.778;7.912;2023-03-14T05:05:42;19.60;70.80
32600;DHT22;19277;51.778;7.912;2023-03-14T05:08:08;19.70;70.70
32600;DHT22;19277;51.778;7.912;2023-03-14T05:10:33;19.70;71.10
32600;DHT22;19277;51.778;7.912;2023-03-14T05:12:59;19.60;70.50
32600;DHT22;19277;51.778;7.912;2023-03-14T05:15:24;19.60;70.70
32600;DHT22;19277;51.778;7.912;2023-03-14T05:17:50;19.60;70.60
32600;DHT22;19277;51.778;7.912;2023-03-14T05:20:15;19.60;70.40
32600;DHT22;19277;51.778;7.912;2023-03-14T05:22:42;19.60;70.60
32600;DHT22;19277;51.778;7.912;2023-03-14T05:25:08;19.70;70.50
32600;DHT22;19277;51.778;7.912;2023-03-14T05:27:35;19.70;70.50
32600;DHT22;19277;51.778;7.912;2023-03-14T05:30:01;19.70;70.40
32600;DHT22;19277;51.778;7.912;2023-03-14T05:32:28;19.70;70.70
32600;DHT22;19277;51.778;7.912;2023-03-14T05:34:53;19.70;70.80
32600;DHT22;19277;51.778;7.912;2023-03-14T05:37:23;19.70;70.70
32600;DHT22;19277;51.778;7.912;2023-03-14T05:39:49;19.70;70.90
32600;DHT22;19277;51.778;7.912;2023-03-14T05:42:14;19.70;70.60
32600;DHT22;19277;51.778;7.912;2023-03-14T05:44:40;19.70;70.70
32600;DHT22;19277;51.778;7.912;2023-03-14T05:47:05;19.70;70.60
32600;DHT22;19277;51.778;7.912;2023-03-14T05:49:31;19.70;70.40
32600;DHT22;19277;51.778;7.912;2023-03-14T05:51:57;19.70;70.20
32600;DHT22;19277;51.778;7.912;2023-03-14T05:54:22;19.70;70.40
32600;DHT22;19277;51.778;7.912;2023-03-14T05:56:48;19.70;70.50
32600;DHT22;19277;51.778;7.912;2023-03-14T05:59:13;19.70;70.30
32600;DHT22;19277;51.778;7.912;2023-03-14T06:01:40;19.70;70.30
32600;DHT22;19277;51.778;7.912;2023-03-14T06:04:06;19.70;70.30
32600;DHT22;19277;51.778;7.912;2023-03-14T06:06:31;19.70;70.60
32600;DHT22;19277;51.778;7.912;2023-03-14T06:08:57;19.70;70.50
32600;DHT22;19277;51.778;7.912;2023-03-14T06:11:22;19.70;70.40
32600;DHT22;19277;51.778;7.912;2023-03-14T06:13:48;19.70;70.30
32600;DHT22;19277;51.778;7.912;2023-03-14T06:16:13;19.70;70.40
32600;DHT22;19277;51.778;7.912;2023-03-14T06:18:39;19.70;70.70
32600;DHT22;19277;51.778;7.912;2023-03-14T06:21:05;19.70;70.50
32600;DHT22;19277;51.778;7.912;2023-03-14T06:23:31;19.70;70.60
32600;DHT22;19277;51.778;7.912;2023-03-14T06:25:57;19.70;70.80
32600;DHT22;19277;51.778;7.912;2023-03-14T06:28:23;19.70;70.40
32600;DHT22;19277;51.778;7.912;2023-03-14T06:30:48;19.70;70.60
32600;DHT22;19277;51.778;7.912;2023-03-14T06:33:14;19.60;70.50
32600;DHT22;19277;51.778;7.912;2023-03-14T06:35:39;19.60;70.50
32600;DHT22;19277;51.778;7.912;2023-03-14T06:38:05;19.60;70.40
32600;DHT22;19277;51.778;7.912;2023-03-14T06:40:31;19.60;70.30
32600;DHT22;19277;51.778;7.912;2023-03-14T06:42:56;19.60;70.70
32600;DHT22;19277;51.778;7.912;2023-03-14T06:45:22;19.70;70.40
32600;DHT22;19277;51.778;7.912;2023-03-14T06:47:47;19.70;70.50
32600;DHT22;19277;51.778;7.912;2023-03-14T06:50:13;19.70;70.30
32600;DHT22;19277;51.778;7.912;2023-03-14T06:52:38;19.70;70.40
32600;DHT22;19277;51.778;7.912;2023-03-14T06:55:13;19.70;70.40
32600;DHT22;19277;51.778;7.912;2023-03-14T06:57:39;19.70;70.30
32600;DHT22;19277;51.778;7.912;2023-03-14T07:00:05;19.70;70.60
32600;DHT22;19277;51.778;7.912;2023-03-14T07:02:31;19.70;70.40
32600;DHT22;19277;51.778;7.912;2023-03-14T07:04:56;19.70;70.60
32600;DHT22;19277;51.778;7.912;2023-03-14T07:07:23;19.70;70.50
32600;DHT22;19277;51.778;7.912;2023-03-14T07:09:49;19.70;70.40
32600;DHT22;19277;51.778;7.912;2023-03-14T07:12:15;19.70;70.50
32600;DHT22;19277;51.778;7.912;2023-03-14T07:14:41;19.70;70.50
32600;DHT22;19277;51.778;7.912;2023-03-14T07:17:06;19.70;70.70
32600;DHT22;19277;51.778;7.912;2023-03-14T07:19:32;19.70;70.70
32600;DHT22;19277;51.778;7.912;2023-03-14T07:21:57;19.70;70.60
32600;DHT22;19277;51.778;7.912;2023-03-14T07:24:23;19.70;70.60
32600;DHT22;19277;51.778;7.912;2023-03-14T07:26:49;19.70;70.60
32600;DHT22;19277;51.778;7.912;2023-03-14T07:29:14;19.70;70.60
32600;DHT22;19277;51.778;7.912;2023-03-14T07:31:40;19.80;70.60
32600;DHT22;19277;51.778;7.912;2023-03-14T07:34:05;19.80;70.40
32600;DHT22;19277;51.778;7.912;2023-03-14T07:36:31;19.90;70.20
32600;DHT22;19277;51.778;7.912;2023-03-14T07:38:57;19.90;70.10
32600;DHT22;19277;51.778;7.912;2023-03-14T07:41:22;19.90;70.10
32600;DHT22;19277;51.778;7.912;2023-03-14T07:43:48;19.70;67.60
32600;DHT22;19277;51.778;7.912;2023-03-14T07:46:14;18.70;69.10
32600;DHT22;19277;51.778;7.912;2023-03-14T07:48:40;17.70;71.80
32600;DHT22;19277;51.778;7.912;2023-03-14T07:51:06;16.80;75.70
32600;DHT22;19277;51.778;7.912;2023-03-14T07:53:32;16.10;78.50
32600;DHT22;19277;51.778;7.912;2023-03-14T07:55:57;15.50;80.30
32600;DHT22;19277;51.778;7.912;2023-03-14T07:58:23;15.10;81.80
32600;DHT22;19277;51.778;7.912;2023-03-14T08:00:50;14.80;83.60
32600;DHT22;19277;51.778;7.912;2023-03-14T08:03:16;14.50;84.60
32600;DHT22;19277;51.778;7.912;2023-03-14T08:05:42;14.50;84.90
32600;DHT22;19277;51.778;7.912;2023-03-14T08:08:08;14.40;85.00
32600;DHT22;19277;51.778;7.912;2023-03-14T08:10:34;14.30;85.60
32600;DHT22;19277;51.778;7.912;2023-03-14T08:13:00;14.20;86.20
32600;DHT22;19277;51.778;7.912;2023-03-14T08:15:28;14.30;86.20
32600;DHT22;19277;51.778;7.912;2023-03-14T08:17:53;14.20;86.10
32600;DHT22;19277;51.778;7.912;2023-03-14T08:20:21;14.20;86.30
32600;DHT22;19277;51.778;7.912;2023-03-14T08:22:47;14.10;86.80
32600;DHT22;19277;51.778;7.912;2023-03-14T08:25:13;14.30;88.70
32600;DHT22;19277;51.778;7.912;2023-03-14T08:27:39;14.90;89.20
32600;DHT22;19277;51.778;7.912;2023-03-14T08:30:17;15.70;87.60
32600;DHT22;19277;51.778;7.912;2023-03-14T08:32:43;16.40;85.50
32600;DHT22;19277;51.778;7.912;2023-03-14T08:35:10;17.00;83.20
32600;DHT22;19277;51.778;7.912;2023-03-14T08:37:35;17.50;82.10
32600;DHT22;19277;51.778;7.912;2023-03-14T08:40:02;17.90;80.60
32600;DHT22;19277;51.778;7.912;2023-03-14T08:42:32;18.30;79.30
32600;DHT22;19277;51.778;7.912;2023-03-14T08:44:58;18.60;78.30
32600;DHT22;19277;51.778;7.912;2023-03-14T08:47:23;18.80;77.60
32600;DHT22;19277;51.778;7.912;2023-03-14T08:49:49;19.10;76.70
32600;DHT22;19277;51.778;7.912;2023-03-14T08:52:15;19.20;76.40
32600;DHT22;19277;51.778;7.912;2023-03-14T08:54:43;19.40;76.30
32600;DHT22;19277;51.778;7.912;2023-03-14T08:57:09;19.50;75.90
32600;DHT22;19277;51.778;7.912;2023-03-14T08:59:34;19.60;75.80
32600;DHT22;19277;51.778;7.912;2023-03-14T09:02:00;19.70;75.80
32600;DHT22;19277;51.778;7.912;2023-03-14T09:04:29;19.80;75.60
32600;DHT22;19277;51.778;7.912;2023-03-14T09:06:54;19.90;75.50
32600;DHT22;19277;51.778;7.912;2023-03-14T09:09:20;19.90;75.20
32600;DHT22;19277;51.778;7.912;2023-03-14T09:11:46;20.00;75.30
32600;DHT22;19277;51.778;7.912;2023-03-14T09:14:11;20.10;75.00
32600;DHT22;19277;51.778;7.912;2023-03-14T09:16:37;20.10;74.80
32600;DHT22;19277;51.778;7.912;2023-03-14T09:19:02;20.30;74.70
32600;DHT22;19277;51.778;7.912;2023-03-14T09:21:28;20.40;74.30
32600;DHT22;19277;51.778;7.912;2023-03-14T09:23:53;20.40;74.10
32600;DHT22;19277;51.778;7.912;2023-03-14T09:26:19;20.40;73.50
32600;DHT22;19277;51.778;7.912;2023-03-14T09:28:45;20.50;72.80
32600;DHT22;19277;51.778;7.912;2023-03-14T09:31:11;20.40;72.60
32600;DHT22;19277;51.778;7.912;2023-03-14T09:33:38;20.40;72.40
32600;DHT22;19277;51.778;7.912;2023-03-14T09:36:05;20.40;72.60
32600;DHT22;19277;51.778;7.912;2023-03-14T09:38:31;20.40;72.30
32600;DHT22;19277;51.778;7.912;2023-03-14T09:40:59;20.40;72.50
32600;DHT22;19277;51.778;7.912;2023-03-14T09:43:26;20.40;72.40
32600;DHT22;19277;51.778;7.912;2023-03-14T09:45:53;20.50;72.30
32600;DHT22;19277;51.778;7.912;2023-03-14T09:48:26;20.60;71.90
32600;DHT22;19277;51.778;7.912;2023-03-14T09:50:55;20.70;71.50
32600;DHT22;19277;51.778;7.912;2023-03-14T09:53:28;20.70;71.20
32600;DHT22;19277;51.778;7.912;2023-03-14T09:55:57;20.70;71.40
32600;DHT22;19277;51.778;7.912;2023-03-14T09:58:24;20.70;71.20
32600;DHT22;19277;51.778;7.912;2023-03-14T10:00:52;20.60;71.20
32600;DHT22;19277;51.778;7.912;2023-03-14T10:03:36;20.60;71.40
32600;DHT22;19277;51.778;7.912;2023-03-14T10:06:02;20.50;71.30
32600;DHT22;19277;51.778;7.912;2023-03-14T10:08:34;20.50;71.60
32600;DHT22;19277;51.778;7.912;2023-03-14T10:11:00;20.40;71.50
32600;DHT22;19277;51.778;7.912;2023-03-14T10:13:27;20.40;71.40
32600;DHT22;19277;51.778;7.912;2023-03-14T10:16:00;20.40;71.70
32600;DHT22;19277;51.778;7.912;2023-03-14T10:18:29;20.40;71.70
32600;DHT22;19277;51.778;7.912;2023-03-14T10:21:26;20.50;71.30
32600;DHT22;19277;51.778;7.912;2023-03-14T10:23:52;20.50;70.80
32600;DHT22;19277;51.778;7.912;2023-03-14T10:26:24;20.60;70.30
32600;DHT22;19277;51.778;7.912;2023-03-14T10:28:53;20.70;69.80
32600;DHT22;19277;51.778;7.912;2023-03-14T10:31:19;20.70;69.30
32600;DHT22;19277;51.778;7.912;2023-03-14T10:34:01;20.70;69.50
32600;DHT22;19277;51.778;7.912;2023-03-14T10:36:29;20.70;68.80
32600;DHT22;19277;51.778;7.912;2023-03-14T10:39:22;20.60;68.90
32600;DHT22;19277;51.778;7.912;2023-03-14T10:41:52;20.60;69.10
32600;DHT22;19277;51.778;7.912;2023-03-14T10:44:21;20.60;68.70
32600;DHT22;19277;51.778;7.912;2023-03-14T10:46:56;20.70;69.20
32600;DHT22;19277;51.778;7.912;2023-03-14T10:49:32;20.70;69.00
32600;DHT22;19277;51.778;7.912;2023-03-14T10:54:34;20.70;68.80
32600;DHT22;19277;51.778;7.912;2023-03-14T10:57:01;20.70;68.90
32600;DHT22;19277;51.778;7.912;2023-03-14T10:59:35;20.70;68.50
32600;DHT22;19277;51.778;7.912;2023-03-14T11:07:44;20.80;68.40
32600;DHT22;19277;51.778;7.912;2023-03-14T11:13:21;21.10;70.30
32600;DHT22;19277;51.778;7.912;2023-03-14T11:21:32;21.60;69.80
32600;DHT22;19277;51.778;7.912;2023-03-14T11:26:55;21.80;69.70
32600;DHT22;19277;51.778;7.912;2023-03-14T11:29:40;21.90;69.70
32600;DHT22;19277;51.778;7.912;2023-03-14T11:32:15;22.00;69.50
32600;DHT22;19277;51.778;7.912;2023-03-14T11:34:51;22.10;69.30
32600;DHT22;19277;51.778;7.912;2023-03-14T11:40:10;22.00;69.60
32600;DHT22;19277;51.778;7.912;2023-03-14T11:42:39;22.00;69.90
32600;DHT22;19277;51.778;7.912;2023-03-14T11:45:18;22.10;69.80
32600;DHT22;19277;51.778;7.912;2023-03-14T11:47:52;22.20;69.00
32600;DHT22;19277;51.778;7.912;2023-03-14T11:50:19;22.30;69.30
32600;DHT22;19277;51.778;7.912;2023-03-14T11:55:25;22.40;69.40
32600;DHT22;19277;51.778;7.912;2023-03-14T11:58:00;22.40;69.30
32600;DHT22;19277;51.778;7.912;2023-03-14T12:00:26;22.40;69.30
32600;DHT22;19277;51.778;7.912;2023-03-14T12:05:46;22.60;69.30
32600;DHT22;19277;51.778;7.912;2023-03-14T12:11:04;22.60;69.30
32600;DHT22;19277;51.778;7.912;2023-03-14T12:13:37;22.60;69.30
32600;DHT22;19277;51.778;7.912;2023-03-14T12:16:18;22.60;69.40
32600;DHT22;19277;51.778;7.912;2023-03-14T12:18:45;22.60;70.00
32600;DHT22;19277;51.778;7.912;2023-03-14T12:21:11;22.60;69.50
32600;DHT22;19277;51.778;7.912;2023-03-14T12:23:42;22.60;60.90
32600;DHT22;19277;51.778;7.912;2023-03-14T12:28:38;20.50;57.20
32600;DHT22;19277;51.778;7.912;2023-03-14T12:42:11;16.50;63.60
32600;DHT22;19277;51.778;7.912;2023-03-14T12:44:41;16.20;67.20
32600;DHT22;19277;51.778;7.912;2023-03-14T12:49:50;15.10;64.30
32600;DHT22;19277;51.778;7.912;2023-03-14T12:52:18;14.50;68.60
32600;DHT22;19277;51.778;7.912;2023-03-14T12:54:49;14.00;71.60
32600;DHT22;19277;51.778;7.912;2023-03-14T12:57:38;13.90;72.70
32600;DHT22;19277;51.778;7.912;2023-03-14T13:00:23;13.50;72.60
32600;DHT22;19277;51.778;7.912;2023-03-14T13:06:01;13.30;73.60
32600;DHT22;19277;51.778;7.912;2023-03-14T13:08:42;13.30;77.30
32600;DHT22;19277;51.778;7.912;2023-03-14T13:11:21;13.80;77.00
32600;DHT22;19277;51.778;7.912;2023-03-14T13:13:55;13.80;74.10
32600;DHT22;19277;51.778;7.912;2023-03-14T13:16:22;14.10;83.40
32600;DHT22;19277;51.778;7.912;2023-03-14T13:18:50;14.90;83.60
32600;DHT22;19277;51.778;7.912;2023-03-14T13:21:21;15.70;81.80
32600;DHT22;19277;51.778;7.912;2023-03-14T13:26:21;17.10;77.60
32600;DHT22;19277;51.778;7.912;2023-03-14T13:28:48;17.60;75.50
32600;DHT22;19277;51.778;7.912;2023-03-14T13:31:23;18.00;73.80
32600;DHT22;19277;51.778;7.912;2023-03-14T13:34:06;18.30;71.80
32600;DHT22;19277;51.778;7.912;2023-03-14T13:36:35;18.60;69.80
32600;DHT22;19277;51.778;7.912;2023-03-14T13:39:01;18.70;69.40
32600;DHT22;19277;51.778;7.912;2023-03-14T13:41:28;18.80;69.00
32600;DHT22;19277;51.778;7.912;2023-03-14T13:44:06;18.90;69.10
32600;DHT22;19277;51.778;7.912;2023-03-14T13:46:36;19.00;69.00
32600;DHT22;19277;51.778;7.912;2023-03-14T13:49:04;19.10;69.80
32600;DHT22;19277;51.778;7.912;2023-03-14T13:51:31;19.30;69.00
32600;DHT22;19277;51.778;7.912;2023-03-14T13:54:00;19.40;68.60
32600;DHT22;19277;51.778;7.912;2023-03-14T13:56:30;19.60;69.90
32600;DHT22;19277;51.778;7.912;2023-03-14T13:58:56;19.70;69.00
32600;DHT22;19277;51.778;7.912;2023-03-14T14:01:37;19.80;68.40
32600;DHT22;19277;51.778;7.912;2023-03-14T14:04:08;19.90;68.30
32600;DHT22;19277;51.778;7.912;2023-03-14T14:06:44;20.00;67.80
32600;DHT22;19277;51.778;7.912;2023-03-14T14:09:14;20.10;67.20
32600;DHT22;19277;51.778;7.912;2023-03-14T14:14:36;20.20;66.60
32600;DHT22;19277;51.778;7.912;2023-03-14T14:17:03;20.20;67.30
32600;DHT22;19277;51.778;7.912;2023-03-14T14:19:32;20.20;65.60
32600;DHT22;19277;51.778;7.912;2023-03-14T14:21:59;20.30;65.60
32600;DHT22;19277;51.778;7.912;2023-03-14T14:24:29;20.30;65.70
32600;DHT22;19277;51.778;7.912;2023-03-14T14:27:12;20.40;64.50
32600;DHT22;19277;51.778;7.912;2023-03-14T14:29:38;20.30;63.80
32600;DHT22;19277;51.778;7.912;2023-03-14T14:34:42;20.30;63.80
32600;DHT22;19277;51.778;7.912;2023-03-14T14:37:35;20.30;63.70
32600;DHT22;19277;51.778;7.912;2023-03-14T14:40:26;20.30;63.40
32600;DHT22;19277;51.778;7.912;2023-03-14T14:42:52;20.30;63.30
32600;DHT22;19277;51.778;7.912;2023-03-14T14:45:23;20.40;62.70
32600;DHT22;19277;51.778;7.912;2023-03-14T14:53:40;20.50;61.60
32600;DHT22;19277;51.778;7.912;2023-03-14T14:56:19;20.50;60.70
32600;DHT22;19277;51.778;7.912;2023-03-14T14:58:48;20.50;61.10
32600;DHT22;19277;51.778;7.912;2023-03-14T15:01:16;20.50;60.10
32600;DHT22;19277;51.778;7.912;2023-03-14T15:03:44;20.50;60.30
32600;DHT22;19277;51.778;7.912;2023-03-14T15:06:14;20.50;60.10
32600;DHT22;19277;51.778;7.912;2023-03-14T15:08:42;20.50;60.40
32600;DHT22;19277;51.778;7.912;2023-03-14T15:11:20;20.60;61.40
32600;DHT22;19277;51.778;7.912;2023-03-14T15:13:48;20.60;61.30
32600;DHT22;19277;51.778;7.912;2023-03-14T15:16:15;20.70;60.10
32600;DHT22;19277;51.778;7.912;2023-03-14T15:18:42;20.70;59.60
32600;DHT22;19277;51.778;7.912;2023-03-14T15:21:11;20.70;59.50
32600;DHT22;19277;51.778;7.912;2023-03-14T15:23:37;20.80;58.90
32600;DHT22;19277;51.778;7.912;2023-03-14T15:26:05;20.80;58.40
32600;DHT22;19277;51.778;7.912;2023-03-14T15:28:36;20.80;58.00
32600;DHT22;19277;51.778;7.912;2023-03-14T15:31:02;20.70;57.70
32600;DHT22;19277;51.778;7.912;2023-03-14T15:33:28;20.70;57.50
32600;DHT22;19277;51.778;7.912;2023-03-14T15:35:54;20.60;58.10
32600;DHT22;19277;51.778;7.912;2023-03-14T15:38:21;20.50;58.60
32600;DHT22;19277;51.778;7.912;2023-03-14T15:40:49;20.50;58.50
32600;DHT22;19277;51.778;7.912;2023-03-14T15:43:15;20.50;57.90
32600;DHT22;19277;51.778;7.912;2023-03-14T15:45:41;20.50;58.40
32600;DHT22;19277;51.778;7.912;2023-03-14T15:48:19;20.40;57.90
32600;DHT22;19277;51.778;7.912;2023-03-14T15:50:45;20.40;57.70
32600;DHT22;19277;51.778;7.912;2023-03-14T15:53:11;20.40;58.10
32600;DHT22;19277;51.778;7.912;2023-03-14T15:55:37;20.40;57.40
32600;DHT22;19277;51.778;7.912;2023-03-14T15:58:02;20.40;57.10
32600;DHT22;19277;51.778;7.912;2023-03-14T16:00:29;20.30;57.80
32600;DHT22;19277;51.778;7.912;2023-03-14T16:02:54;20.30;59.30
32600;DHT22;19277;51.778;7.912;2023-03-14T16:05:20;20.40;62.20
32600;DHT22;19277;51.778;7.912;2023-03-14T16:07:46;20.50;63.30
32600;DHT22;19277;51.778;7.912;2023-03-14T16:10:13;20.60;63.90
32600;DHT22;19277;51.778;7.912;2023-03-14T16:12:39;20.80;64.40
32600;DHT22;19277;51.778;7.912;2023-03-14T16:15:05;20.90;64.70
32600;DHT22;19277;51.778;7.912;2023-03-14T16:17:32;21.00;65.00
32600;DHT22;19277;51.778;7.912;2023-03-14T16:19:57;21.00;65.30
32600;DHT22;19277;51.778;7.912;2023-03-14T16:22:23;21.10;65.60
32600;DHT22;19277;51.778;7.912;2023-03-14T16:24:49;21.20;65.90
32600;DHT22;19277;51.778;7.912;2023-03-14T16:27:15;21.20;66.10
32600;DHT22;19277;51.778;7.912;2023-03-14T16:29:41;21.20;66.20
32600;DHT22;19277;51.778;7.912;2023-03-14T16:32:06;21.20;66.40
32600;DHT22;19277;51.778;7.912;2023-03-14T16:34:32;21.30;66.60
32600;DHT22;19277;51.778;7.912;2023-03-14T16:36:58;21.30;66.70
32600;DHT22;19277;51.778;7.912;2023-03-14T16:39:23;21.30;66.90
32600;DHT22;19277;51.778;7.912;2023-03-14T16:41:49;21.30;67.10